Country
Station

 

Weather  for  Willoughby  -  United States    United States

  
18 °C (64 °F)
    
 
 

Current METAR for Willoughby is :

KLNN 202015Z AUTO 08004KT 4SM BKN004 BKN014 OVC100 18/16 A2955 RMK AO1 T01770157

 

This is a report for Willoughby - United States.
 
The report was made 9 minutes ago, at 20:15 UTC .
The wind was blowing at a speed of 2.1 meters per second (4.6 miles per hour) from east (080°).
 
The temperature was 18 °C (64 °F), with a dew-point at 16 °C (61 °F).
The atmospheric pressure was 1001 hPa (29.55 inHg).
The relative humidity was 88.1%.
 
There were broken clouds at a height of 122 meters (400 feet) and broken clouds at a height of 427 meters (1400 feet). The sky was overcast from a height of 3048 meter (10000 feet)
 
The overall visibility was 6.4 kilometers (4.0 miles).
 

 
 
 
 

Country :   A   B   C   D   E   F   G   H   I   J   K   L   M   N   O   P   Q   R   S   T   U   V   W   Y   Z

 

Site Info  |  Disclaimer  |  Credits  |  Privacy
Contact us  |  Add to favorites
© 2013-2019 METARs - All rights reserved